Impacts METAR Board INFO
IDs:

KLAS - Las Vegas/McCarran I, NV, US

Updated at: 2054 UTC 11 Dec 2017
Potential Impact None Slight Moderate High
Time11/08Z 11/09Z 11/10Z 11/11Z 11/12Z 11/13Z 11/14Z 11/15Z 11/16Z 11/17Z 11/18Z 11/19Z 11/20Z
VIS10 10 10 10 10 10 10 10 10 10 10 10 10
CIG250 250 250 250 250 250 250 -- -- -- -- -- --
CoverOVCBKNBKNBKNBKNBKNBKNSCTSCTSCTSCTSCTSCT
FltCatVFRVFRVFRVFRVFRVFRVFRVFRVFRVFRVFRVFRVFR
WX--------------------------
WDir0021022020023021026020019050300
WSpd0 0 5 3 6 3 6 7 5 5 3 3 0
WGst-- -- -- -- -- -- -- -- -- -- -- -- --
Raw hourly METARs
KLAS 110756Z 00000KT 10SM OVC250 08/M14 A3035 RMK AO2 SLP275 T00831144 401830044
KLAS 110856Z COR 00000KT 10SM BKN250 07/M16 A3036 RMK AO2 SLP275 T00721156 51004
KLAS 110956Z 21005KT 10SM BKN250 07/M14 A3036 RMK AO2 SLP278 T00671144
KLAS 111056Z 22003KT 10SM BKN250 07/M15 A3037 RMK AO2 SLP280 T00721150
KLAS 111156Z 20006KT 10SM BKN250 06/M16 A3037 RMK AO2 SLP279 T00611161 10094 20061 50003
KLAS 111256Z 23003KT 10SM BKN250 06/M16 A3037 RMK AO2 SLP284 T00561161
KLAS 111356Z 21006KT 10SM BKN250 06/M16 A3038 RMK AO2 SLP287 T00561161
KLAS 111456Z 26007KT 10SM SCT250 05/M16 A3039 RMK AO2 SLP291 T00501161 51007
KLAS 111556Z 20005KT 10SM SCT250 08/M16 A3040 RMK AO2 SLP294 T00781161
KLAS 111656Z 19005KT 10SM SCT250 11/M17 A3041 RMK AO2 SLP295 T01111172
KLAS 111756Z 05003KT 10SM SCT250 13/M18 A3041 RMK AO2 SLP294 T01331183 10133 20044 50006
KLAS 111856Z 03003KT 10SM SCT250 14/M17 A3039 RMK AO2 SLP290 T01441172
KLAS 111956Z 00000KT 10SM SCT250 16/M16 A3036 RMK AO2 SLP277 T01611161